If you wish to contribute or participate in the discussions about articles you are invited to join SKYbrary as a registered user

 Actions

El Tor Airport

From SKYbrary Wiki

HETR
Airport
ICAO: HETR – IATA: ELT
Summary
Name El Tor Airport
Region Africa
Territory Egypt EG.gif
Location El Tor, Janub Sina'
Serving El Tor
Elevation 35.052 m
115 ft
115 ft35.052 m
Type small airport
Coordinates 28° 12' 32.50" N, 33° 38' 43.86" E
Runways
Designator Length Width Surface ROPS
10/28 3000 m9,842.52 ft
45 m147.638 ft
ASP /


METAR
Observation HETR 171400Z 31018KT 6000 FEW025 29/22 Q1012
Station El Tor
Date/Time 17 October 2019 14:00:00
Wind direction 310°
Wind speed 18 kts
Lowest cloud amount few clouds
Temperature 29°C
Dew point 22°C
Humidity 66%
QNH 1012 hPa
Weather condition n/a

Maps

Terrain

Loading map...

Airport Layout

Loading map...


Accidents & Serious Incidents at or in vicinity of HETR

None on SKYbrary